Marble Canyon, AZ (86036)

2:35 AM MST on April 25, 2017 (GMT -0700)
MPGEA3 | | Change Station
Active Advisory: Wind Advisory

Elev 3355 ft 36.86 °N, 111.60 °W | Updated 1 hour ago

Overcast
Overcast
70.0 °F
Feels Like 70.0 °F
N
-
Wind Variable Wind from North

Today
High -- | Low -- °F
--% Chance of Precip.
Yesterday
High -- | Low -- °F
Precip. -- in
Pressure 29.47 in
Visibility 10.0 miles
Clouds Scattered Clouds 8500 ft
Dew Point Not available.
Humidity Not available.
Rainfall 0.00 in
Snow Depth Not available.
5:39 AM 7:10 PM
Waning Crescent, 2% visible
METAR KPGA 250853Z AUTO 29005KT 10SM SCT085 18/M02 A2963 RMK AO2 SLP977 T01781017 50001 TSNO
Pressure 29.47 in
Visibility 10.0 miles
Clouds Scattered Clouds 8500 ft
Dew Point Not available.
Humidity Not available.
Rainfall 0.00 in
Snow Depth Not available.
5:39 AM 7:10 PM
Waning Crescent, 2% visible
METAR KPGA 250853Z AUTO 29005KT 10SM SCT085 18/M02 A2963 RMK AO2 SLP977 T01781017 50001 TSNO

Get Your Daily Forecast Email!

Thanks for signing up!

Be on the lookout for a verification email in your inbox.

You'll start receiving severe weather alerts in your inbox..

×

10-Day Weather Forecast

Almanac

Astronomy

Apr. 25, 2017 Rise Set
Actual Time
Civil Twilight
Nautical Twilight
Astronomical Twilight
Moon
Length of Visible Light
Length of Day
Tomorrow will be .
, % of the Moon is Illuminated

Today's Extremes

State Highs State Lows

Community

WunderPhotos

WunderBlog® & News

Nearby

Air Quality

  Air Quality AQ Index Pollutant
Not available.

Snow Depth

Station Depth Elevation

Earthquake Activity

City Distance Mag. Time & Date
Minimum magnitude displayed is 2.5.

Coastal Water Temperatures

Place Temperature

Stations

Nearby Weather Stations

Station Location Temp. Windchill Dew Point Humidity Wind Precip. Elev Updated Type
                   

Watches & Warnings

Wind Advisory
Issued: 2:27 AM MDT Apr. 25, 2017 – National Weather Service

... Wind Advisory remains in effect from noon today to 8 PM MST
this evening...

* timing... gusty west to northwest winds will increase late
morning and early afternoon. The winds will continue into
the evening.

* Winds... west to northwest winds 20 to 30 mph with gusts to
between 40 and 45 mph.

* Impacts... winds this strong can make driving difficult...
especially for high profile vehicles. Consider securing loose
belongings on your property.

Precautionary/preparedness actions...

A Wind Advisory means that sustained winds of 30 to 39 mph... or
gusts from 40 to 57 mph... are expected. Additional
weather information is on the web at www.Weather.Gov/Flagstaff.